Time;durP1;ratioP1;P1;durP2;ratioP2;P2;SDS_P1;SDS_P2;PMS_P1;PMS_P2;Temp;Humidity;BMP_temperature;BMP_pressure;BME280_temperature;BME280_humidity;BME280_pressure;Samples;Min_cycle;Max_cycle;Signal;HPM_P1;HPM_P2
2022/12/19 00:00:23;;;;;;;;;31.50;25.00;;;;;7.37;68.92;101376.19;5029951;28;46332;-60
2022/12/19 00:02:48;;;;;;;;;24.00;21.75;;;;;7.42;68.66;101387.97;5043428;28;53671;-60
2022/12/19 00:05:14;;;;;;;;;22.50;20.25;;;;;7.36;68.02;101390.34;5055333;28;46135;-61
2022/12/19 00:07:39;;;;;;;;;18.75;18.75;;;;;7.42;68.21;101400.34;5043974;28;45666;-61
2022/12/19 00:10:05;;;;;;;;;23.00;20.75;;;;;7.50;68.00;101405.19;5036057;28;45619;-61
2022/12/19 00:12:31;;;;;;;;;24.75;20.50;;;;;7.52;67.31;101398.25;5043093;28;45620;-61
2022/12/19 00:14:56;;;;;;;;;23.75;20.00;;;;;7.53;68.24;101393.81;5055491;28;45387;-60
2022/12/19 00:17:22;;;;;;;;;22.50;19.25;;;;;7.55;67.58;101387.72;5043160;28;45565;-60
2022/12/19 00:19:47;;;;;;;;;21.50;16.25;;;;;7.59;67.65;101390.53;5042320;28;46530;-59
2022/12/19 00:22:12;;;;;;;;;20.00;18.50;;;;;7.50;68.09;101369.75;5042703;28;45486;-60
2022/12/19 00:24:38;;;;;;;;;25.00;18.00;;;;;7.50;67.31;101370.63;5036108;28;45738;-60
2022/12/19 00:27:03;;;;;;;;;37.50;32.25;;;;;7.55;68.08;101369.09;5042730;28;45360;-61
2022/12/19 00:29:28;;;;;;;;;25.75;22.00;;;;;7.66;67.39;101379.38;5042367;28;46112;-61
2022/12/19 00:31:54;;;;;;;;;19.50;18.50;;;;;7.64;67.31;101371.31;5042532;28;45665;-61
2022/12/19 00:34:19;;;;;;;;;26.00;20.50;;;;;7.62;67.22;101367.66;5037518;28;46369;-59
2022/12/19 00:36:44;;;;;;;;;30.50;23.25;;;;;7.70;67.86;101370.69;5056535;28;45479;-60
2022/12/19 00:39:10;;;;;;;;;19.75;17.75;;;;;7.66;67.62;101358.09;5052996;28;46184;-59
2022/12/19 00:41:37;;;;;;;;;21.00;17.25;;;;;7.73;67.60;101362.88;5054594;28;45401;-60
2022/12/19 00:44:06;;;;;;;;;20.50;15.50;;;;;7.74;67.50;101359.38;5045995;28;45365;-60
2022/12/19 00:46:32;;;;;;;;;23.75;20.25;;;;;7.77;67.23;101355.94;5055373;28;45509;-62
2022/12/19 00:48:58;;;;;;;;;24.75;18.75;;;;;7.68;67.47;101332.47;5035590;28;46404;-61
2022/12/19 00:51:29;;;;;;;;;15.25;15.25;;;;;7.80;67.49;101350.78;5049607;28;45688;-62
2022/12/19 00:53:55;;;;;;;;;18.00;18.00;;;;;7.81;67.36;101345.53;5055348;28;45355;-61
2022/12/19 00:56:29;;;;;;;;;21.50;19.50;;;;;7.70;67.52;101323.72;5055686;28;45465;-60
2022/12/19 00:58:56;;;;;;;;;19.00;15.00;;;;;7.75;67.35;101326.59;5054928;28;46748;-58
2022/12/19 01:01:28;;;;;;;;;23.25;18.00;;;;;7.77;67.67;101324.94;5034438;28;45415;-60
2022/12/19 01:03:53;;;;;;;;;26.75;19.25;;;;;7.40;67.26;101258.47;5027374;28;45410;-61
2022/12/19 01:06:19;;;;;;;;;15.50;15.00;;;;;7.79;67.24;101328.59;5055628;28;45319;-59
2022/12/19 01:08:44;;;;;;;;;22.00;18.00;;;;;7.83;67.65;101327.88;5055051;28;45469;-61
2022/12/19 01:11:10;;;;;;;;;19.25;16.50;;;;;7.83;67.66;101330.53;5055293;28;45276;-61
2022/12/19 01:13:38;;;;;;;;;21.00;19.50;;;;;7.82;67.30;101341.09;5055220;28;45295;-62
2022/12/19 01:16:06;;;;;;;;;18.25;17.75;;;;;7.81;67.77;101334.88;5053308;28;45367;-61
2022/12/19 01:18:32;;;;;;;;;17.75;17.75;;;;;7.72;67.93;101323.78;5053918;28;46183;-61
2022/12/19 01:21:04;;;;;;;;;11.00;11.00;;;;;7.81;67.95;101344.63;5036476;28;45576;-61
2022/12/19 01:23:30;;;;;;;;;24.25;17.75;;;;;7.82;67.41;101341.09;5053267;28;45463;-61
2022/12/19 01:25:56;;;;;;;;;16.50;15.75;;;;;7.83;67.45;101337.63;5055211;28;45480;-61
2022/12/19 01:28:22;;;;;;;;;22.50;17.50;;;;;7.89;68.22;101344.13;5036716;28;47027;-60
2022/12/19 01:30:47;;;;;;;;;21.75;19.00;;;;;7.88;67.43;101342.28;5054798;28;45371;-59
2022/12/19 01:33:14;;;;;;;;;15.00;13.25;;;;;7.91;67.87;101338.88;5043148;28;45491;-60
2022/12/19 01:35:41;;;;;;;;;19.00;18.25;;;;;7.91;67.64;101341.53;5031181;28;45594;-62
2022/12/19 01:38:07;;;;;;;;;16.00;15.50;;;;;7.91;67.56;101342.44;5045857;28;45426;-61
2022/12/19 01:40:33;;;;;;;;;17.25;16.50;;;;;7.94;67.29;101350.56;5054657;28;45332;-60
2022/12/19 01:43:00;;;;;;;;;21.00;18.75;;;;;7.95;67.12;101343.50;5055419;28;45316;-61
2022/12/19 01:45:28;;;;;;;;;17.00;15.50;;;;;7.99;67.51;101341.91;5055575;28;45462;-59
2022/12/19 01:48:11;;;;;;;;;21.50;19.25;;;;;8.01;67.32;101332.25;5053300;28;45700;-60
2022/12/19 01:50:50;;;;;;;;;19.50;16.50;;;;;8.03;67.53;101327.91;5041409;28;45484;-61
2022/12/19 01:53:15;;;;;;;;;18.75;12.00;;;;;8.00;67.68;101318.03;5054946;28;45428;-60
2022/12/19 01:55:43;;;;;;;;;17.50;15.00;;;;;8.08;67.64;101326.34;5055534;28;45605;-62
2022/12/19 01:58:10;;;;;;;;;19.00;16.50;;;;;8.08;66.98;101332.59;5039209;28;46469;-60
2022/12/19 02:00:35;;;;;;;;;13.25;12.50;;;;;7.99;67.40;101315.31;5043163;28;45399;-61
2022/12/19 02:03:10;;;;;;;;;19.75;16.75;;;;;8.07;66.85;101325.44;5055130;28;45354;-60
2022/12/19 02:05:38;;;;;;;;;22.25;17.00;;;;;8.09;66.98;101321.09;5035873;28;45729;-60
2022/12/19 02:08:04;;;;;;;;;19.00;11.75;;;;;8.11;66.89;101327.41;5037079;28;45565;-60
2022/12/19 02:10:29;;;;;;;;;13.75;12.50;;;;;8.17;67.11;101334.75;5044371;28;45662;-60
2022/12/19 02:12:55;;;;;;;;;16.25;15.00;;;;;8.23;67.27;101342.09;5035590;28;45474;-60
2022/12/19 02:15:21;;;;;;;;;16.75;16.25;;;;;8.25;67.28;101338.69;5054575;28;45347;-60
2022/12/19 02:18:19;;;;;;;;;18.00;16.75;;;;;8.20;67.65;101337.56;5053905;28;45606;-59
2022/12/19 02:20:53;;;;;;;;;15.00;14.50;;;;;8.26;67.20;101337.81;5050821;28;45494;-58
2022/12/19 02:23:27;;;;;;;;;17.50;15.25;;;;;8.31;66.95;101338.03;5034299;28;45481;-60
2022/12/19 02:26:30;;;;;;;;;12.25;12.00;;;;;8.32;66.66;101334.53;5051201;28;45485;-61
2022/12/19 02:29:26;;;;;;;;;18.25;13.50;;;;;8.35;67.64;101339.09;5053663;28;47500;-60
2022/12/19 02:32:03;;;;;;;;;15.00;14.50;;;;;8.29;66.62;101329.09;5053918;28;45568;-59
2022/12/19 02:34:36;;;;;;;;;17.50;14.50;;;;;8.36;67.14;101343.56;5047033;28;45302;-59
2022/12/19 02:37:07;;;;;;;;;15.75;13.75;;;;;8.31;67.00;101335.38;5030577;28;45600;-60
2022/12/19 02:39:40;;;;;;;;;18.25;13.00;;;;;8.40;67.19;101342.88;5044911;28;46966;-60
2022/12/19 02:42:10;;;;;;;;;18.00;14.00;;;;;8.32;67.26;101317.66;5040303;28;45308;-59
2022/12/19 02:44:44;;;;;;;;;17.00;15.25;;;;;8.43;67.62;101333.31;5054069;28;45295;-60
2022/12/19 02:47:11;;;;;;;;;18.00;12.00;;;;;8.45;67.44;101336.94;5054269;28;45508;-60
2022/12/19 02:49:37;;;;;;;;;17.00;14.50;;;;;8.45;67.70;101333.38;5054571;28;45321;-61
2022/12/19 02:52:31;;;;;;;;;27.50;13.75;;;;;8.45;67.55;101336.03;5036733;28;45313;-60
2022/12/19 02:55:10;;;;;;;;;16.00;13.50;;;;;8.40;68.03;101325.16;5039321;28;45475;-60
2022/12/19 02:58:28;;;;;;;;;12.25;12.00;;;;;8.48;67.19;101338.84;5053468;28;45530;-60
2022/12/19 03:01:14;;;;;;;;;17.25;13.00;;;;;8.46;68.07;101325.47;5008012;28;45527;-60
2022/12/19 03:04:13;;;;;;;;;16.75;15.00;;;;;8.48;67.44;101322.88;5039299;28;45466;-60
2022/12/19 03:07:07;;;;;;;;;16.50;12.25;;;;;8.51;68.19;101324.75;5052194;28;45309;-60
2022/12/19 03:09:35;;;;;;;;;11.25;11.25;;;;;8.49;67.25;101324.66;5054509;28;45460;-60
2022/12/19 03:12:06;;;;;;;;;11.00;10.25;;;;;8.52;68.44;101326.56;5042345;28;45538;-61
2022/12/19 03:14:34;;;;;;;;;16.50;12.75;;;;;8.47;67.69;101321.94;5033326;28;45339;-60
2022/12/19 03:17:05;;;;;;;;;15.00;13.75;;;;;8.50;68.09;101329.16;5043897;28;45509;-59
2022/12/19 03:19:31;;;;;;;;;17.25;11.75;;;;;8.45;68.13;101312.97;5053605;28;45464;-61
2022/12/19 03:21:57;;;;;;;;;13.75;12.75;;;;;8.41;67.59;101299.41;5053349;28;45688;-61
2022/12/19 03:24:23;;;;;;;;;19.25;16.00;;;;;8.48;68.78;101310.47;5052938;28;45457;-59
2022/12/19 03:27:15;;;;;;;;;17.50;16.00;;;;;8.52;67.94;101324.81;5052146;28;45345;-60
2022/12/19 03:29:54;;;;;;;;;15.50;12.75;;;;;8.50;68.65;101315.84;5031130;28;45790;-61
2022/12/19 03:32:23;;;;;;;;;15.75;11.50;;;;;8.50;69.08;101313.19;5041834;28;45414;-61
2022/12/19 03:35:01;;;;;;;;;15.00;10.75;;;;;8.53;68.83;101316.00;5047221;28;45299;-61
2022/12/19 03:37:32;;;;;;;;;13.75;13.75;;;;;8.44;68.83;101296.94;5056830;28;45464;-60
2022/12/19 03:40:05;;;;;;;;;17.50;13.75;;;;;8.44;68.91;101295.16;5057191;28;45389;-60
2022/12/19 03:45:24;;;;;;;;;13.00;13.00;;;;;8.52;69.06;101300.84;5034595;28;45561;-60
2022/12/19 03:47:57;;;;;;;;;10.50;9.75;;;;;8.58;69.28;101303.78;5037029;28;45380;-60
2022/12/19 03:50:25;;;;;;;;;15.25;12.00;;;;;8.58;68.22;101309.09;5042018;28;45872;-60
2022/12/19 03:53:02;;;;;;;;;12.50;12.50;;;;;8.60;68.62;101318.06;5056615;28;46446;-60
2022/12/19 03:55:40;;;;;;;;;14.50;13.00;;;;;8.62;68.17;101319.03;5043647;28;45533;-60
2022/12/19 03:58:09;;;;;;;;;18.25;14.75;;;;;8.64;68.79;101313.78;5053261;28;45466;-60
2022/12/19 04:00:39;;;;;;;;;12.50;12.00;;;;;8.70;68.50;101324.69;5042878;28;47015;-60
2022/12/19 04:03:06;;;;;;;;;17.25;12.00;;;;;8.74;68.39;101321.31;5053958;28;46462;-59
2022/12/19 04:05:33;;;;;;;;;14.25;14.25;;;;;8.68;68.46;101302.44;5056387;28;45272;-59
2022/12/19 04:08:04;;;;;;;;;15.00;12.50;;;;;8.77;68.16;101320.53;5039521;28;45249;-59
2022/12/19 04:10:33;;;;;;;;;9.50;9.50;;;;;8.80;68.44;101329.56;5035909;28;45476;-60
2022/12/19 04:13:04;;;;;;;;;13.25;10.25;;;;;8.82;67.47;101326.97;5048296;28;45597;-60
2022/12/19 04:15:38;;;;;;;;;12.25;11.25;;;;;8.80;67.88;101324.25;5053721;28;45490;-59
2022/12/19 04:18:08;;;;;;;;;17.75;12.00;;;;;8.83;68.38;101328.81;5036252;28;45513;-60
2022/12/19 04:20:38;;;;;;;;;13.50;12.00;;;;;8.82;67.43;101332.31;5056510;28;45398;-59
2022/12/19 04:23:12;;;;;;;;;12.50;11.25;;;;;8.81;67.56;101322.47;5048883;28;45463;-60
2022/12/19 04:25:42;;;;;;;;;18.25;13.00;;;;;8.85;67.39;101324.44;5035894;28;45541;-61
2022/12/19 04:28:24;;;;;;;;;18.75;10.50;;;;;8.84;68.36;101322.63;5043710;28;45596;-60
2022/12/19 04:30:51;;;;;;;;;13.00;12.00;;;;;8.93;68.03;101323.03;5042204;28;45348;-60
2022/12/19 04:33:16;;;;;;;;;15.75;14.50;;;;;8.83;67.93;101316.38;5037513;28;48678;-60
2022/12/19 04:35:42;;;;;;;;;12.75;9.50;;;;;8.95;67.41;101331.97;5042853;28;45544;-60
2022/12/19 04:38:07;;;;;;;;;13.75;12.25;;;;;8.95;67.84;101325.75;5056186;28;45436;-61
2022/12/19 04:40:34;;;;;;;;;11.50;11.50;;;;;8.89;68.09;101313.06;5056069;28;45611;-60
2022/12/19 04:42:59;;;;;;;;;18.25;13.00;;;;;8.99;67.61;101323.28;5054831;28;45673;-61
2022/12/19 04:45:24;;;;;;;;;13.50;10.00;;;;;8.85;66.95;101301.38;5054616;28;45394;-60
2022/12/19 04:47:50;;;;;;;;;10.75;10.75;;;;;9.02;67.26;101327.81;5045742;28;45419;-59
2022/12/19 04:50:15;;;;;;;;;15.75;14.00;;;;;9.00;67.74;101319.75;5053540;28;45872;-59
2022/12/19 04:52:40;;;;;;;;;17.25;13.00;;;;;9.01;67.66;101324.25;5043980;28;45324;-59
2022/12/19 04:55:06;;;;;;;;;17.25;12.00;;;;;9.01;67.27;101324.25;5037111;28;61072;-60
2022/12/19 04:57:32;;;;;;;;;15.50;13.00;;;;;8.99;67.85;101317.97;5035408;28;45538;-60
2022/12/19 04:59:57;;;;;;;;;10.00;10.00;;;;;8.97;67.40;101308.97;5052309;28;45304;-59
2022/12/19 05:02:23;;;;;;;;;14.00;12.50;;;;;9.07;67.72;101325.34;5055744;28;45512;-60
2022/12/19 05:04:50;;;;;;;;;6.00;6.00;;;;;9.05;67.31;101317.28;5055110;28;45470;-59
2022/12/19 05:07:18;;;;;;;;;10.25;10.25;;;;;9.03;67.82;101314.56;5044435;28;45536;-60
2022/12/19 05:09:44;;;;;;;;;11.25;10.75;;;;;9.04;67.83;101304.78;5039439;28;45214;-60
2022/12/19 05:12:09;;;;;;;;;10.50;8.75;;;;;9.13;68.44;101315.84;5054870;28;46982;-60
2022/12/19 05:14:35;;;;;;;;;17.75;11.25;;;;;9.09;67.82;101305.00;5051168;28;45322;-61
2022/12/19 05:17:00;;;;;;;;;17.50;13.00;;;;;9.08;67.63;101306.75;5037076;28;45750;-61
2022/12/19 05:19:25;;;;;;;;;14.00;10.75;;;;;9.08;67.50;101313.84;5054738;28;45224;-61
2022/12/19 05:21:51;;;;;;;;;13.25;9.75;;;;;9.08;67.74;101300.53;5054986;28;46001;-60
2022/12/19 05:24:16;;;;;;;;;13.00;12.00;;;;;9.13;67.75;101312.28;5054169;28;45838;-61
2022/12/19 05:26:41;;;;;;;;;23.50;14.50;;;;;9.11;68.05;101303.31;5054644;28;45433;-61
2022/12/19 05:29:07;;;;;;;;;15.75;11.25;;;;;9.17;67.70;101308.88;5055158;28;45355;-60
2022/12/19 05:31:32;;;;;;;;;10.00;10.00;;;;;9.11;67.93;101303.31;5045204;28;45323;-60
2022/12/19 05:33:58;;;;;;;;;12.00;10.50;;;;;9.12;67.43;101310.47;5052270;28;47625;-60
2022/12/19 05:36:23;;;;;;;;;12.00;12.00;;;;;9.13;67.54;101309.63;5045250;28;45486;-60
2022/12/19 05:38:49;;;;;;;;;13.00;12.00;;;;;9.18;67.87;101319.63;5051908;28;45485;-59
2022/12/19 05:41:17;;;;;;;;;11.25;11.25;;;;;9.20;67.89;101325.00;5054933;28;45741;-60
2022/12/19 05:43:44;;;;;;;;;12.75;12.75;;;;;9.22;67.73;101334.91;5055233;28;45363;-60
2022/12/19 05:46:09;;;;;;;;;12.25;11.50;;;;;9.23;67.47;101335.81;5037210;28;45571;-60
2022/12/19 05:48:35;;;;;;;;;12.50;10.00;;;;;9.24;68.24;101334.97;5051298;28;45359;-61
2022/12/19 05:51:01;;;;;;;;;12.00;10.25;;;;;9.25;68.20;101331.44;5049497;28;46681;-60
2022/12/19 05:53:27;;;;;;;;;9.75;8.00;;;;;9.22;68.12;101321.56;5055924;28;45383;-60
2022/12/19 05:56:17;;;;;;;;;9.50;9.25;;;;;9.25;67.55;101326.09;5056527;28;45402;-62
2022/12/19 05:58:43;;;;;;;;;12.00;10.75;;;;;9.17;68.43;101301.81;5055373;28;45495;-61
2022/12/19 06:01:29;;;;;;;;;9.75;9.00;;;;;9.24;68.51;101334.97;5054716;28;45331;-61
2022/12/19 06:03:55;;;;;;;;;10.25;9.00;;;;;9.13;68.38;101296.28;5052849;28;45449;-61
2022/12/19 06:06:23;;;;;;;;;14.50;12.00;;;;;9.27;68.02;101320.84;5034145;28;45500;-60
2022/12/19 06:08:56;;;;;;;;;18.75;15.50;;;;;9.29;68.77;101322.72;5035660;28;45224;-59
2022/12/19 06:11:22;;;;;;;;;14.00;12.00;;;;;9.27;67.92;101327.06;5053787;28;46191;-59
2022/12/19 06:13:48;;;;;;;;;11.75;10.25;;;;;9.29;68.38;101324.47;5050786;28;45703;-59
2022/12/19 06:16:17;;;;;;;;;13.00;10.75;;;;;9.30;68.59;101326.31;5044118;28;45485;-60
2022/12/19 06:18:44;;;;;;;;;9.75;9.75;;;;;9.32;68.58;101325.53;5054309;28;45578;-60
2022/12/19 06:21:14;;;;;;;;;10.00;8.75;;;;;9.23;68.43;101310.03;5053528;28;45536;-59
2022/12/19 06:23:41;;;;;;;;;15.75;12.50;;;;;9.29;68.83;101335.13;5050300;28;45318;-62
2022/12/19 06:26:07;;;;;;;;;18.50;16.50;;;;;9.26;67.95;101333.28;5045530;28;45651;-63
2022/12/19 06:28:33;;;;;;;;;14.75;12.25;;;;;9.27;68.26;101318.16;5037763;28;45454;-59
2022/12/19 06:31:01;;;;;;;;;12.75;10.75;;;;;9.29;68.66;101321.81;5029976;28;46006;-60
2022/12/19 06:33:28;;;;;;;;;10.50;10.50;;;;;9.22;68.38;101317.97;5024923;28;47125;-60
2022/12/19 06:36:27;;;;;;;;;12.25;10.50;;;;;9.26;68.41;101330.59;5045122;28;45560;-61
2022/12/19 06:38:53;;;;;;;;;14.25;11.00;;;;;9.16;68.87;101292.00;5048837;28;45551;-61
2022/12/19 06:44:07;;;;;;;;;12.50;11.50;;;;;9.33;68.47;101318.44;5034008;28;45462;-59
2022/12/19 06:46:33;;;;;;;;;12.50;11.50;;;;;9.28;67.91;101301.34;5033569;28;45532;-62
2022/12/19 06:48:59;;;;;;;;;12.75;11.00;;;;;9.35;68.45;101314.06;5044883;28;45481;-60
2022/12/19 06:51:27;;;;;;;;;15.75;11.25;;;;;9.37;68.29;101312.34;5038076;28;45572;-60
2022/12/19 06:53:53;;;;;;;;;19.75;16.25;;;;;9.43;68.64;101312.59;5040770;28;45391;-60
2022/12/19 06:56:19;;;;;;;;;16.50;11.50;;;;;9.41;68.47;101293.88;5053990;28;45649;-62
2022/12/19 06:58:45;;;;;;;;;12.75;10.00;;;;;9.45;67.73;101304.66;5053852;28;45568;-60
2022/12/19 07:01:18;;;;;;;;;11.50;9.00;;;;;9.46;67.47;101309.16;5052285;28;46055;-60
2022/12/19 07:03:45;;;;;;;;;12.75;10.25;;;;;9.37;68.04;101289.28;5040851;28;45619;-59
2022/12/19 07:06:10;;;;;;;;;14.25;10.75;;;;;9.47;67.80;101317.25;5029236;28;45487;-61
2022/12/19 07:08:36;;;;;;;;;17.50;13.25;;;;;9.47;67.64;101310.97;5047125;28;45514;-61
2022/12/19 07:11:01;;;;;;;;;15.75;11.00;;;;;9.46;68.35;101303.84;5037575;28;45767;-61
2022/12/19 07:13:27;;;;;;;;;14.25;11.25;;;;;9.47;67.95;101317.25;5037504;28;45687;-60
2022/12/19 07:15:57;;;;;;;;;15.25;13.25;;;;;9.49;68.27;101319.97;5052453;28;45441;-61
2022/12/19 07:18:22;;;;;;;;;11.75;11.75;;;;;9.40;67.84;101299.16;5056198;28;45442;-61
2022/12/19 07:20:48;;;;;;;;;13.00;10.00;;;;;9.48;67.78;101311.03;5055042;28;45630;-60
2022/12/19 07:23:17;;;;;;;;;13.25;11.50;;;;;9.41;68.08;101309.88;5038284;28;46010;-60
2022/12/19 07:25:42;;;;;;;;;12.25;11.25;;;;;9.49;68.34;101319.97;5056123;28;45612;-60
2022/12/19 07:28:08;;;;;;;;;14.50;12.50;;;;;9.52;68.28;101320.06;5056799;28;45653;-61
2022/12/19 07:30:33;;;;;;;;;14.00;12.75;;;;;9.50;67.90;101321.75;5054047;28;47342;-62
2022/12/19 07:32:59;;;;;;;;;15.00;13.00;;;;;9.48;67.52;101318.13;5056954;28;45658;-62
2022/12/19 07:35:24;;;;;;;;;12.50;11.25;;;;;9.51;68.23;101318.25;5056737;28;49720;-60
2022/12/19 07:37:50;;;;;;;;;14.50;10.25;;;;;9.45;67.75;101312.69;5056996;28;45540;-62
2022/12/19 07:40:16;;;;;;;;;15.50;13.00;;;;;9.52;67.65;101330.72;5066900;28;45438;-61
2022/12/19 07:42:42;;;;;;;;;17.50;13.25;;;;;9.49;67.53;101323.53;5054510;28;45087;-60
2022/12/19 07:45:07;;;;;;;;;13.75;13.00;;;;;9.49;67.52;101315.53;5068989;28;45389;-60
2022/12/19 07:47:33;;;;;;;;;19.00;14.25;;;;;9.47;68.00;101311.91;5067919;28;45067;-60
2022/12/19 07:49:58;;;;;;;;;18.75;12.75;;;;;9.25;67.85;101270.13;5039891;28;46173;-61
2022/12/19 07:52:24;;;;;;;;;20.50;13.75;;;;;9.51;67.98;101321.81;5030013;28;45327;-60
2022/12/19 07:54:49;;;;;;;;;18.75;17.50;;;;;9.52;67.75;101320.06;5050400;28;45294;-61
2022/12/19 07:57:15;;;;;;;;;13.75;11.00;;;;;9.56;67.69;101330.03;5056329;28;45453;-61
2022/12/19 07:59:40;;;;;;;;;19.25;12.00;;;;;9.50;67.92;101322.69;5056275;28;45953;-60
2022/12/19 08:02:06;;;;;;;;;14.00;13.75;;;;;9.49;67.79;101323.53;5045426;28;47590;-67
2022/12/19 08:04:31;;;;;;;;;12.00;12.00;;;;;9.58;67.90;101341.66;5054696;28;45503;-67
2022/12/19 08:06:56;;;;;;;;;16.50;14.50;;;;;9.60;67.63;101342.63;5056350;28;45577;-66
2022/12/19 08:09:22;;;;;;;;;14.25;13.00;;;;;9.65;68.01;101354.41;5046784;28;45693;-70
2022/12/19 08:11:47;;;;;;;;;14.25;12.75;;;;;9.57;67.00;101330.09;5049301;28;45583;-66
2022/12/19 08:14:13;;;;;;;;;20.25;15.75;;;;;9.69;67.53;101353.66;5042823;28;45331;-65
2022/12/19 08:16:38;;;;;;;;;15.75;12.50;;;;;9.72;66.96;101358.22;5039343;28;45433;-67
2022/12/19 08:19:04;;;;;;;;;19.25;13.00;;;;;9.74;67.08;101349.41;5054057;28;45888;-67
2022/12/19 08:21:29;;;;;;;;;12.00;11.25;;;;;9.70;66.84;101343.88;5051738;28;45780;-66
2022/12/19 08:23:54;;;;;;;;;16.50;13.75;;;;;9.75;67.26;101337.91;5058152;28;45495;-67
2022/12/19 08:26:24;;;;;;;;;14.25;12.75;;;;;9.80;66.84;101340.75;5050074;28;45637;-67
2022/12/19 08:28:51;;;;;;;;;15.50;13.00;;;;;9.82;66.84;101349.72;5040456;28;45616;-68
2022/12/19 08:31:17;;;;;;;;;16.75;13.25;;;;;9.67;66.50;101322.41;5036266;28;45625;-67
2022/12/19 08:33:43;;;;;;;;;13.25;11.25;;;;;9.88;66.86;101355.31;5035641;28;45442;-69
2022/12/19 08:36:11;;;;;;;;;16.50;13.00;;;;;9.84;66.33;101339.13;5056874;28;45395;-68
2022/12/19 08:38:38;;;;;;;;;14.25;13.00;;;;;9.93;66.46;101350.13;5038851;28;47392;-67
2022/12/19 08:41:04;;;;;;;;;10.75;10.75;;;;;9.73;66.44;101301.31;5052832;28;45363;-67
2022/12/19 08:43:29;;;;;;;;;10.75;8.50;;;;;9.94;66.46;101343.94;5052390;28;45390;-68
2022/12/19 08:45:55;;;;;;;;;15.50;13.50;;;;;9.98;66.15;101342.31;5050372;28;45512;-66
2022/12/19 08:48:20;;;;;;;;;8.50;7.50;;;;;9.84;65.96;101323.09;5051492;28;47430;-65
2022/12/19 08:50:55;;;;;;;;;14.75;12.75;;;;;10.02;66.05;101346.94;5046125;28;45591;-67
2022/12/19 08:53:22;;;;;;;;;12.75;11.00;;;;;10.04;65.97;101353.22;5068607;28;45355;-67
2022/12/19 08:55:54;;;;;;;;;18.25;11.50;;;;;10.07;65.84;101359.59;5062974;28;45807;-65
2022/12/19 08:58:19;;;;;;;;;14.25;11.25;;;;;10.03;65.47;101343.38;5053681;28;45485;-67
2022/12/19 09:00:45;;;;;;;;;14.75;11.25;;;;;10.05;65.72;101339.03;5048751;28;45454;-66
2022/12/19 09:03:10;;;;;;;;;12.50;12.50;;;;;10.06;65.29;101339.06;5049683;28;45327;-66
2022/12/19 09:05:36;;;;;;;;;14.50;11.50;;;;;10.13;65.61;101342.91;5043500;28;45677;-67
2022/12/19 09:08:02;;;;;;;;;13.25;11.25;;;;;10.11;65.80;101337.50;5055475;28;45575;-66
2022/12/19 09:10:29;;;;;;;;;16.25;11.75;;;;;10.13;65.45;101338.47;5059922;28;45534;-67
2022/12/19 09:12:54;;;;;;;;;11.75;10.50;;;;;10.12;64.57;101341.97;5055011;28;45387;-67
2022/12/19 09:15:19;;;;;;;;;12.00;7.00;;;;;10.10;64.94;101335.69;5055511;28;45488;-66
2022/12/19 09:17:45;;;;;;;;;15.50;13.25;;;;;10.20;64.88;101352.06;5048166;28;45459;-67
2022/12/19 09:20:11;;;;;;;;;14.25;12.00;;;;;10.14;64.59;101339.38;5054878;28;45419;-64
2022/12/19 09:22:36;;;;;;;;;8.00;7.00;;;;;10.20;63.95;101346.72;5054593;28;45505;-66
2022/12/19 09:25:01;;;;;;;;;8.25;8.25;;;;;10.12;64.83;101339.31;5036859;28;45312;-66
2022/12/19 09:27:27;;;;;;;;;16.25;15.50;;;;;10.22;64.34;101356.59;5039653;28;46360;-67
2022/12/19 09:29:52;;;;;;;;;13.25;13.25;;;;;10.19;64.71;101345.78;5051123;28;45579;-68
2022/12/19 09:32:17;;;;;;;;;12.50;11.75;;;;;10.25;64.42;101358.47;5036176;28;45426;-69
2022/12/19 09:34:43;;;;;;;;;11.75;8.75;;;;;10.22;64.40;101353.91;5053715;28;45605;-67
2022/12/19 09:37:10;;;;;;;;;12.00;11.00;;;;;10.21;63.85;101361.88;5045254;28;46002;-66
2022/12/19 09:39:36;;;;;;;;;8.75;8.75;;;;;10.25;63.76;101363.81;5054568;28;45567;-67
2022/12/19 09:42:01;;;;;;;;;12.50;10.75;;;;;10.23;63.84;101377.09;5036219;28;45325;-68
2022/12/19 09:44:36;;;;;;;;;13.25;10.25;;;;;10.22;63.77;101374.38;5038472;28;45457;-67
2022/12/19 09:47:31;;;;;;;;;14.00;12.00;;;;;10.20;63.87;101373.41;5044346;28;45629;-67
2022/12/19 09:49:59;;;;;;;;;17.75;14.50;;;;;10.19;63.85;101376.94;5031555;28;45468;-67
2022/12/19 09:52:45;;;;;;;;;13.50;11.00;;;;;10.15;63.73;101374.13;5053676;28;45383;-65
2022/12/19 09:55:22;;;;;;;;;13.25;12.00;;;;;10.20;63.96;101370.75;5043985;28;45498;-66
2022/12/19 09:57:50;;;;;;;;;16.25;13.25;;;;;10.29;63.61;101384.44;5044192;28;46262;-68
2022/12/19 10:00:21;;;;;;;;;14.75;11.00;;;;;10.28;63.67;101379.97;5044672;28;45643;-66
2022/12/19 10:03:09;;;;;;;;;8.50;8.50;;;;;10.27;63.28;101380.78;5037333;28;45309;-66
2022/12/19 10:05:47;;;;;;;;;13.25;10.50;;;;;10.19;63.81;101363.56;5052474;28;45633;-67
2022/12/19 10:08:20;;;;;;;;;12.75;9.00;;;;;10.27;63.47;101371.00;5050133;28;45386;-64
2022/12/19 10:11:17;;;;;;;;;15.00;10.50;;;;;10.20;63.84;101360.06;5051037;28;45544;-66
2022/12/19 10:14:00;;;;;;;;;15.00;12.75;;;;;10.30;63.94;101362.22;5049085;28;45604;-65
2022/12/19 10:16:41;;;;;;;;;13.75;9.25;;;;;10.32;63.72;101363.22;5052776;28;45835;-65
2022/12/19 10:19:13;;;;;;;;;14.00;12.25;;;;;10.29;63.40;101352.38;5051733;28;45446;-65
2022/12/19 10:22:01;;;;;;;;;16.00;9.50;;;;;10.34;63.47;101361.50;5050854;28;45525;-66
2022/12/19 10:25:05;;;;;;;;;16.50;14.25;;;;;10.41;63.44;101366.25;5046518;28;46249;-64
2022/12/19 10:27:50;;;;;;;;;10.00;10.00;;;;;10.44;63.22;101361.00;5041280;28;45489;-66
2022/12/19 10:30:19;;;;;;;;;15.25;12.00;;;;;10.47;63.03;101352.19;5046389;28;45597;-65
2022/12/19 10:33:03;;;;;;;;;14.00;12.25;;;;;10.50;63.10;101355.88;5033873;28;45562;-65
2022/12/19 10:35:42;;;;;;;;;15.25;10.50;;;;;10.49;62.67;101348.72;5050344;28;45575;-66
2022/12/19 10:38:10;;;;;;;;;12.50;11.00;;;;;10.55;62.56;101341.78;5051963;28;45508;-65
2022/12/19 10:40:49;;;;;;;;;14.75;12.00;;;;;10.60;62.73;101354.44;5045216;28;46140;-66
2022/12/19 10:43:46;;;;;;;;;13.00;11.00;;;;;10.63;62.58;101349.22;5053428;28;45383;-66
2022/12/19 10:46:28;;;;;;;;;13.50;12.00;;;;;10.67;62.37;101345.81;5052931;28;45355;-66
2022/12/19 10:48:53;;;;;;;;;9.75;9.75;;;;;10.62;61.82;101330.44;5045462;28;45551;-65
2022/12/19 10:51:23;;;;;;;;;12.00;10.00;;;;;10.67;61.73;101356.50;5051921;28;46282;-66
2022/12/19 10:53:57;;;;;;;;;17.50;15.75;;;;;10.68;62.14;101342.25;5045968;28;45800;-67
2022/12/19 10:56:26;;;;;;;;;15.00;12.50;;;;;10.70;62.31;101342.31;5052216;28;45477;-65
2022/12/19 10:58:56;;;;;;;;;15.00;15.00;;;;;10.76;62.23;101342.53;5053942;28;45548;-63
2022/12/19 11:01:29;;;;;;;;;16.50;12.00;;;;;10.79;62.16;101341.72;5045116;28;45510;-64
2022/12/19 11:04:27;;;;;;;;;17.50;14.00;;;;;10.67;62.00;101315.47;5045484;28;45670;-62
2022/12/19 11:07:04;;;;;;;;;13.75;11.00;;;;;10.78;61.91;101335.47;5048022;28;45486;-63
2022/12/19 11:09:30;;;;;;;;;9.75;9.25;;;;;10.80;61.40;101325.75;5049372;28;46501;-65
2022/12/19 11:12:11;;;;;;;;;10.75;9.00;;;;;10.80;61.51;101333.75;5043422;28;46685;-65
2022/12/19 11:14:40;;;;;;;;;18.50;15.00;;;;;10.78;61.90;101329.25;5050282;28;45505;-64
2022/12/19 11:17:24;;;;;;;;;20.50;14.00;;;;;10.83;61.95;101331.19;5053551;28;45322;-64
2022/12/19 11:19:49;;;;;;;;;12.50;12.25;;;;;10.86;61.69;101333.97;5053313;28;45499;-65
2022/12/19 11:22:30;;;;;;;;;13.00;13.00;;;;;10.84;61.81;101333.03;5034923;28;46292;-64
2022/12/19 11:24:57;;;;;;;;;7.75;7.00;;;;;10.81;61.82;101319.56;5041032;28;45419;-65
2022/12/19 11:27:28;;;;;;;;;13.25;13.25;;;;;10.37;61.54;101237.84;5052433;28;45287;-64
2022/12/19 11:29:53;;;;;;;;;14.00;10.00;;;;;10.91;61.91;101327.91;5041143;28;45529;-64
2022/12/19 11:32:31;;;;;;;;;14.25;12.00;;;;;10.93;61.36;101327.09;5036658;28;45363;-64
2022/12/19 11:35:03;;;;;;;;;16.25;13.75;;;;;10.94;61.30;101318.22;5042944;28;45480;-65